Time,TemperatureF,DewpointF,PressureIn,WindDirection,WindDirectionDegrees,WindSpeedMPH,WindSpeedGustMPH,Humidity,HourlyPrecipIn,Conditions,Clouds,dailyrainin,SoftwareType,DateUTC
2013-05-30 00:01:00,37.4,23.6,25.87,NW,315,3.6,3.6,57,0.00,,---,0.00,VWS V14.01,2013-05-30 07:01:00,
2013-05-30 00:06:00,37.6,24.2,25.87,NW,315,3.6,3.6,58,0.00,,---,0.00,VWS V14.01,2013-05-30 07:06:00,
2013-05-30 00:11:00,37.0,24.1,25.87,NW,315,3.6,3.6,59,0.00,,---,0.00,VWS V14.01,2013-05-30 07:11:00,
2013-05-30 00:16:00,37.4,24.8,25.87,NW,315,3.6,3.6,60,0.00,,---,0.00,VWS V14.01,2013-05-30 07:16:00,
2013-05-30 00:21:00,37.0,24.5,25.87,NW,315,3.6,3.6,60,0.00,,---,0.00,VWS V14.01,2013-05-30 07:21:00,
2013-05-30 00:26:00,37.0,24.5,25.87,NW,315,2.7,2.7,60,0.00,,---,0.00,VWS V14.01,2013-05-30 07:26:00,
2013-05-30 00:31:00,36.9,24.7,25.87,NW,315,3.6,3.6,61,0.00,,---,0.00,VWS V14.01,2013-05-30 07:31:00,
2013-05-30 00:36:00,36.7,25.3,25.87,NW,315,3.6,3.6,63,0.00,,---,0.00,VWS V14.01,2013-05-30 07:36:00,
2013-05-30 00:41:00,36.3,24.6,25.87,NW,315,3.6,3.6,62,0.00,,---,0.00,VWS V14.01,2013-05-30 07:41:00,
2013-05-30 00:46:00,36.3,23.8,25.87,NW,315,4.0,4.0,60,0.00,,---,0.00,VWS V14.01,2013-05-30 07:46:00,
2013-05-30 00:51:00,36.3,25.3,25.87,NW,315,3.1,3.1,64,0.00,,---,0.00,VWS V14.01,2013-05-30 07:51:00,
2013-05-30 00:56:00,36.5,25.5,25.87,NW,315,3.1,3.1,64,0.00,,---,0.00,VWS V14.01,2013-05-30 07:56:00,
2013-05-30 01:01:00,36.3,23.8,25.87,NW,315,3.1,3.1,60,0.00,,---,0.00,VWS V14.01,2013-05-30 08:01:00,
2013-05-30 01:06:00,36.5,24.7,25.87,NW,315,3.1,3.1,62,0.00,,---,0.00,VWS V14.01,2013-05-30 08:06:00,
2013-05-30 01:11:00,37.0,25.6,25.87,NW,315,3.1,3.1,63,0.00,,---,0.00,VWS V14.01,2013-05-30 08:11:00,
2013-05-30 01:16:00,36.9,25.1,25.87,NW,315,3.1,3.1,62,0.00,,---,0.00,VWS V14.01,2013-05-30 08:16:00,
2013-05-30 01:21:00,36.7,24.5,25.87,NW,315,3.1,3.1,61,0.00,,---,0.00,VWS V14.01,2013-05-30 08:21:00,
2013-05-30 01:26:00,36.5,24.7,25.87,NW,315,3.1,3.1,62,0.00,,---,0.00,VWS V14.01,2013-05-30 08:26:00,
2013-05-30 01:31:00,36.9,25.8,25.87,NW,315,3.1,3.1,64,0.00,,---,0.00,VWS V14.01,2013-05-30 08:31:00,
2013-05-30 01:36:00,36.9,25.5,25.87,NW,315,3.1,3.1,63,0.00,,---,0.00,VWS V14.01,2013-05-30 08:36:00,
2013-05-30 01:41:00,36.9,25.5,25.87,NW,315,3.1,3.1,63,0.00,,---,0.00,VWS V14.01,2013-05-30 08:41:00,
2013-05-30 01:46:00,36.7,24.9,25.87,NW,315,3.1,3.1,62,0.00,,---,0.00,VWS V14.01,2013-05-30 08:46:00,
2013-05-30 01:51:00,36.7,24.9,25.87,NW,315,3.1,3.1,62,0.00,,---,0.00,VWS V14.01,2013-05-30 08:51:00,
2013-05-30 01:56:00,36.7,25.7,25.87,NW,315,3.1,3.1,64,0.00,,---,0.00,VWS V14.01,2013-05-30 08:56:00,
2013-05-30 02:01:00,37.0,25.6,25.87,West,270,5.8,5.8,63,0.00,,---,0.00,VWS V14.01,2013-05-30 09:01:00,
2013-05-30 02:06:00,37.4,26.0,25.87,West,270,5.8,5.8,63,0.00,,---,0.00,VWS V14.01,2013-05-30 09:06:00,
2013-05-30 02:11:00,37.8,26.3,25.87,West,270,10.1,10.1,63,0.00,,---,0.00,VWS V14.01,2013-05-30 09:11:00,
2013-05-30 02:16:00,37.6,25.8,25.87,West,270,10.1,10.1,62,0.00,,---,0.00,VWS V14.01,2013-05-30 09:16:00,
2013-05-30 02:21:00,37.6,25.8,25.87,West,270,10.1,10.1,62,0.00,,---,0.00,VWS V14.01,2013-05-30 09:21:00,
2013-05-30 02:26:00,37.0,26.0,25.87,West,270,10.1,10.1,64,0.00,,---,0.00,VWS V14.01,2013-05-30 09:26:00,
2013-05-30 02:31:00,37.2,25.8,25.87,West,270,10.1,10.1,63,0.00,,---,0.00,VWS V14.01,2013-05-30 09:31:00,
2013-05-30 02:36:00,37.4,26.0,25.87,West,270,8.1,8.1,63,0.00,,---,0.00,VWS V14.01,2013-05-30 09:36:00,
2013-05-30 02:41:00,36.9,25.5,25.87,West,270,8.1,8.1,63,0.00,,---,0.00,VWS V14.01,2013-05-30 09:41:00,
2013-05-30 02:46:00,37.4,26.4,25.87,West,270,8.1,8.1,64,0.00,,---,0.00,VWS V14.01,2013-05-30 09:46:00,
2013-05-30 02:51:00,36.9,25.5,25.87,West,270,8.1,8.1,63,0.00,,---,0.00,VWS V14.01,2013-05-30 09:51:00,
2013-05-30 02:56:00,37.0,26.4,25.87,West,270,10.5,10.5,65,0.00,,---,0.00,VWS V14.01,2013-05-30 09:56:00,
2013-05-30 03:01:00,36.7,25.7,25.87,West,270,10.5,10.5,64,0.00,,---,0.00,VWS V14.01,2013-05-30 10:01:00,
2013-05-30 03:06:00,36.9,25.5,25.87,West,270,5.8,5.8,63,0.00,,---,0.00,VWS V14.01,2013-05-30 10:06:00,
2013-05-30 03:11:00,37.2,26.2,25.87,West,270,5.8,5.8,64,0.00,,---,0.00,VWS V14.01,2013-05-30 10:11:00,
2013-05-30 03:16:00,37.4,26.0,25.87,West,270,5.8,5.8,63,0.00,,---,0.00,VWS V14.01,2013-05-30 10:16:00,
2013-05-30 03:21:00,37.9,26.1,25.87,West,270,5.8,5.8,62,0.00,,---,0.00,VWS V14.01,2013-05-30 10:21:00,
2013-05-30 03:26:00,38.3,25.6,25.87,West,270,5.8,5.8,60,0.00,,---,0.00,VWS V14.01,2013-05-30 10:26:00,
2013-05-30 03:31:00,38.7,25.6,25.87,West,270,5.8,5.8,59,0.00,,---,0.00,VWS V14.01,2013-05-30 10:31:00,
2013-05-30 03:36:00,38.5,25.4,25.87,West,270,7.6,7.6,59,0.00,,---,0.00,VWS V14.01,2013-05-30 10:36:00,
2013-05-30 03:41:00,38.5,25.4,25.87,West,270,7.6,7.6,59,0.00,,---,0.00,VWS V14.01,2013-05-30 10:41:00,
2013-05-30 03:46:00,38.5,25.4,25.87,NW,315,4.9,4.9,59,0.00,,---,0.00,VWS V14.01,2013-05-30 10:46:00,
2013-05-30 03:51:00,38.1,25.5,25.87,NW,315,4.9,4.9,60,0.00,,---,0.00,VWS V14.01,2013-05-30 10:51:00,
2013-05-30 03:56:00,38.1,25.5,25.87,NW,315,4.9,4.9,60,0.00,,---,0.00,VWS V14.01,2013-05-30 10:56:00,
2013-05-30 04:01:00,38.1,25.5,25.87,NW,315,4.9,4.9,60,0.00,,---,0.00,VWS V14.01,2013-05-30 11:01:00,
2013-05-30 04:06:00,38.1,25.1,25.87,NW,315,5.8,5.8,59,0.00,,---,0.00,VWS V14.01,2013-05-30 11:06:00,
2013-05-30 04:11:00,37.9,24.9,25.87,NNW,338,6.3,6.3,59,0.00,,---,0.00,VWS V14.01,2013-05-30 11:11:00,
2013-05-30 04:16:00,37.9,24.9,25.87,NNW,338,6.3,6.3,59,0.00,,---,0.00,VWS V14.01,2013-05-30 11:16:00,
2013-05-30 04:21:00,37.8,25.1,25.87,NNW,338,6.3,6.3,60,0.00,,---,0.00,VWS V14.01,2013-05-30 11:21:00,
2013-05-30 04:26:00,37.9,24.9,25.87,NNW,338,7.2,7.2,59,0.00,,---,0.00,VWS V14.01,2013-05-30 11:26:00,
2013-05-30 04:31:00,37.9,24.9,25.87,NNW,338,7.2,7.2,59,0.00,,---,0.00,VWS V14.01,2013-05-30 11:31:00,
2013-05-30 04:36:00,37.6,24.6,25.87,NNW,338,7.2,7.2,59,0.00,,---,0.00,VWS V14.01,2013-05-30 11:36:00,
2013-05-30 04:41:00,37.6,25.0,25.87,NNW,338,7.2,7.2,60,0.00,,---,0.00,VWS V14.01,2013-05-30 11:41:00,
2013-05-30 04:46:00,37.2,25.0,25.87,NNW,338,7.2,7.2,61,0.00,,---,0.00,VWS V14.01,2013-05-30 11:46:00,
2013-05-30 04:51:00,37.0,24.9,25.87,NW,315,4.5,4.5,61,0.00,,---,0.00,VWS V14.01,2013-05-30 11:51:00,
2013-05-30 04:56:00,37.0,24.9,25.87,NNW,338,6.3,6.3,61,0.00,,---,0.00,VWS V14.01,2013-05-30 11:56:00,
2013-05-30 05:01:00,36.9,24.7,25.87,NW,315,5.4,5.4,61,0.00,,---,0.00,VWS V14.01,2013-05-30 12:01:00,
2013-05-30 05:06:00,36.9,25.1,25.87,NW,315,5.4,5.4,62,0.00,,---,0.00,VWS V14.01,2013-05-30 12:06:00,
2013-05-30 05:11:00,36.7,24.9,25.87,NW,315,5.4,5.4,62,0.00,,---,0.00,VWS V14.01,2013-05-30 12:11:00,
2013-05-30 05:16:00,36.9,25.5,25.87,NW,315,5.4,5.4,63,0.00,,---,0.00,VWS V14.01,2013-05-30 12:16:00,
2013-05-30 05:21:00,36.7,25.3,25.87,NW,315,5.4,5.4,63,0.00,,---,0.00,VWS V14.01,2013-05-30 12:21:00,
2013-05-30 05:26:00,36.9,25.5,25.87,NW,315,5.4,5.4,63,0.00,,---,0.00,VWS V14.01,2013-05-30 12:26:00,
2013-05-30 05:31:00,36.7,25.3,25.87,NW,315,5.4,5.4,63,0.00,,---,0.00,VWS V14.01,2013-05-30 12:31:00,
2013-05-30 05:36:00,37.2,25.4,25.87,West,270,5.4,5.4,62,0.00,,---,0.00,VWS V14.01,2013-05-30 12:36:00,
2013-05-30 05:41:00,36.9,25.5,25.87,West,270,5.4,5.4,63,0.00,,---,0.00,VWS V14.01,2013-05-30 12:41:00,
2013-05-30 05:46:00,37.0,25.6,25.87,West,270,5.4,5.4,63,0.00,,---,0.00,VWS V14.01,2013-05-30 12:46:00,
2013-05-30 05:51:00,37.0,25.2,25.87,NNW,338,6.3,6.3,62,0.00,,---,0.00,VWS V14.01,2013-05-30 12:51:00,
2013-05-30 05:56:00,37.4,25.2,25.87,NNW,338,6.3,6.3,61,0.00,,---,0.00,VWS V14.01,2013-05-30 12:56:00,
2013-05-30 06:01:00,37.6,25.4,25.87,NNW,338,6.3,6.3,61,0.00,,---,0.00,VWS V14.01,2013-05-30 13:01:00,
2013-05-30 06:06:00,38.1,25.5,25.87,NNW,338,6.3,6.3,60,0.00,,---,0.00,VWS V14.01,2013-05-30 13:06:00,
2013-05-30 06:11:00,38.1,25.5,25.87,NNW,338,6.3,6.3,60,0.00,,---,0.00,VWS V14.01,2013-05-30 13:11:00,
2013-05-30 06:16:00,38.7,25.6,25.87,NW,315,5.4,5.4,59,0.00,,---,0.00,VWS V14.01,2013-05-30 13:16:00,
2013-05-30 06:21:00,38.7,25.6,25.87,NW,315,5.4,5.4,59,0.00,,---,0.00,VWS V14.01,2013-05-30 13:21:00,
2013-05-30 06:26:00,40.3,26.3,25.90,WNW,292,5.4,6.3,57,0.00,,---,0.00,VWS V14.01,2013-05-30 13:26:00,
2013-05-30 06:31:00,41.0,26.1,25.90,NW,315,8.3,8.3,55,0.00,,---,0.00,VWS V14.01,2013-05-30 13:31:00,
2013-05-30 06:36:00,41.9,26.0,25.90,NW,315,6.7,6.7,53,0.00,,---,0.00,VWS V14.01,2013-05-30 13:36:00,
2013-05-30 06:41:00,42.3,25.9,25.90,North,0,8.3,8.3,52,0.00,,---,0.00,VWS V14.01,2013-05-30 13:41:00,
2013-05-30 06:46:00,41.2,24.9,25.90,NW,315,8.1,8.1,52,0.00,,---,0.00,VWS V14.01,2013-05-30 13:46:00,
2013-05-30 06:51:00,41.5,25.2,25.90,North,0,8.7,8.7,52,0.00,,---,0.00,VWS V14.01,2013-05-30 13:51:00,
2013-05-30 06:56:00,42.8,25.5,25.90,West,270,9.6,9.6,50,0.00,,---,0.00,VWS V14.01,2013-05-30 13:56:00,
2013-05-30 07:01:00,43.7,25.8,25.90,NNW,338,7.2,7.2,49,0.00,,---,0.00,VWS V14.01,2013-05-30 14:01:00,
2013-05-30 07:06:00,44.4,26.0,25.90,NW,315,8.1,8.1,48,0.00,,---,0.00,VWS V14.01,2013-05-30 14:06:00,
2013-05-30 07:11:00,45.0,26.0,25.90,NW,315,6.7,6.7,47,0.00,,---,0.00,VWS V14.01,2013-05-30 14:11:00,
2013-05-30 07:16:00,45.5,25.9,25.90,NW,315,6.3,6.3,46,0.00,,---,0.00,VWS V14.01,2013-05-30 14:16:00,
2013-05-30 07:21:00,46.0,25.9,25.90,West,270,8.1,8.1,45,0.00,,---,0.00,VWS V14.01,2013-05-30 14:21:00,
2013-05-30 07:26:00,46.6,25.9,25.93,West,270,7.2,7.2,44,0.00,,---,0.00,VWS V14.01,2013-05-30 14:26:00,
2013-05-30 07:31:00,47.1,25.8,25.93,West,270,8.7,8.7,43,0.00,,---,0.00,VWS V14.01,2013-05-30 14:31:00,
2013-05-30 07:36:00,46.0,23.7,25.93,WNW,292,3.6,3.6,41,0.00,,---,0.00,VWS V14.01,2013-05-30 14:36:00,
2013-05-30 07:41:00,45.3,23.0,25.90,WNW,292,5.8,5.8,41,0.00,,---,0.00,VWS V14.01,2013-05-30 14:41:00,
2013-05-30 07:46:00,45.9,23.5,25.90,NW,315,5.8,5.8,41,0.00,,---,0.00,VWS V14.01,2013-05-30 14:46:00,
2013-05-30 07:51:00,46.4,23.4,25.90,NW,315,5.8,5.8,40,0.00,,---,0.00,VWS V14.01,2013-05-30 14:51:00,
2013-05-30 07:56:00,46.4,22.8,25.90,NW,315,5.8,5.8,39,0.00,,---,0.00,VWS V14.01,2013-05-30 14:56:00,
2013-05-30 08:01:00,46.6,23.0,25.90,NNW,338,8.1,8.1,39,0.00,,---,0.00,VWS V14.01,2013-05-30 15:01:00,
2013-05-30 08:06:00,45.9,22.3,25.90,West,270,3.6,7.6,39,0.00,,---,0.00,VWS V14.01,2013-05-30 15:06:00,
2013-05-30 08:11:00,45.9,22.3,25.90,NW,315,6.3,6.3,39,0.00,,---,0.00,VWS V14.01,2013-05-30 15:11:00,
2013-05-30 08:16:00,46.9,23.9,25.90,North,0,5.4,6.3,40,0.00,,---,0.00,VWS V14.01,2013-05-30 15:16:00,
2013-05-30 08:21:00,47.7,23.9,25.90,West,270,9.2,9.2,39,0.00,,---,0.00,VWS V14.01,2013-05-30 15:21:00,
2013-05-30 08:26:00,48.0,24.3,25.90,West,270,8.1,8.1,39,0.00,,---,0.00,VWS V14.01,2013-05-30 15:26:00,
2013-05-30 08:31:00,48.2,23.8,25.90,WNW,292,7.6,7.6,38,0.00,,---,0.00,VWS V14.01,2013-05-30 15:31:00,
2013-05-30 08:36:00,48.7,25.5,25.90,West,270,6.3,7.6,40,0.00,,---,0.00,VWS V14.01,2013-05-30 15:36:00,
2013-05-30 08:41:00,48.6,24.1,25.90,WNW,292,7.6,8.1,38,0.00,,---,0.00,VWS V14.01,2013-05-30 15:41:00,
2013-05-30 08:46:00,48.4,24.0,25.90,West,270,4.0,14.5,38,0.00,,---,0.00,VWS V14.01,2013-05-30 15:46:00,
2013-05-30 08:51:00,48.2,24.4,25.90,WNW,292,7.2,12.3,39,0.00,,---,0.00,VWS V14.01,2013-05-30 15:51:00,
2013-05-30 08:56:00,47.3,23.6,25.93,West,270,7.6,7.6,39,0.00,,---,0.00,VWS V14.01,2013-05-30 15:56:00,
2013-05-30 09:01:00,47.5,22.5,25.93,NW,315,6.3,6.3,37,0.00,,---,0.00,VWS V14.01,2013-05-30 16:01:00,
2013-05-30 09:06:00,47.3,22.4,25.93,West,270,10.1,10.1,37,0.00,,---,0.00,VWS V14.01,2013-05-30 16:06:00,
2013-05-30 09:11:00,46.9,22.7,25.93,West,270,12.3,12.3,38,0.00,,---,0.00,VWS V14.01,2013-05-30 16:11:00,
2013-05-30 09:16:00,48.2,23.2,25.93,West,270,10.5,10.5,37,0.00,,---,0.00,VWS V14.01,2013-05-30 16:16:00,
2013-05-30 09:21:00,49.1,24.0,25.93,West,270,7.6,12.8,37,0.00,,---,0.00,VWS V14.01,2013-05-30 16:21:00,
2013-05-30 09:26:00,50.0,24.1,25.93,NW,315,4.0,4.0,36,0.00,,---,0.00,VWS V14.01,2013-05-30 16:26:00,
2013-05-30 09:31:00,50.4,24.4,25.90,West,270,7.6,8.7,36,0.00,,---,0.00,VWS V14.01,2013-05-30 16:31:00,
2013-05-30 09:36:00,50.4,23.8,25.90,West,270,10.5,10.5,35,0.00,,---,0.00,VWS V14.01,2013-05-30 16:36:00,
2013-05-30 09:41:00,50.9,24.9,25.90,West,270,12.8,12.8,36,0.00,,---,0.00,VWS V14.01,2013-05-30 16:41:00,
2013-05-30 09:46:00,51.3,24.6,25.93,West,270,8.1,8.1,35,0.00,,---,0.00,VWS V14.01,2013-05-30 16:46:00,
2013-05-30 09:51:00,50.5,23.9,25.93,West,270,12.3,12.3,35,0.00,,---,0.00,VWS V14.01,2013-05-30 16:51:00,
2013-05-30 09:56:00,51.1,23.0,25.93,WNW,292,11.0,11.0,33,0.00,,---,0.00,VWS V14.01,2013-05-30 16:56:00,
2013-05-30 10:01:00,52.3,23.4,25.93,West,270,11.0,11.0,32,0.00,,---,0.00,VWS V14.01,2013-05-30 17:01:00,
2013-05-30 10:06:00,53.6,22.9,25.93,West,270,10.1,10.1,30,0.00,,---,0.00,VWS V14.01,2013-05-30 17:06:00,
2013-05-30 10:11:00,53.8,23.9,25.93,West,270,10.1,11.0,31,0.00,,---,0.00,VWS V14.01,2013-05-30 17:11:00,
2013-05-30 10:16:00,54.1,21.8,25.93,West,270,5.4,5.4,28,0.00,,---,0.00,VWS V14.01,2013-05-30 17:16:00,
2013-05-30 10:20:00,53.1,23.2,25.93,West,270,5.4,5.4,31,0.00,,---,0.00,VWS V14.01,2013-05-30 17:20:00,
2013-05-30 10:25:00,53.2,22.6,25.93,West,270,10.5,12.3,30,0.00,,---,0.00,VWS V14.01,2013-05-30 17:25:00,
2013-05-30 10:30:00,52.9,22.3,25.93,West,270,10.1,10.1,30,0.00,,---,0.00,VWS V14.01,2013-05-30 17:30:00,
2013-05-30 10:35:00,51.8,20.6,25.93,West,270,8.7,8.7,29,0.00,,---,0.00,VWS V14.01,2013-05-30 17:35:00,
2013-05-30 10:40:00,50.9,20.6,25.93,SW,225,7.6,12.8,30,0.00,,---,0.00,VWS V14.01,2013-05-30 17:40:00,
2013-05-30 10:45:00,51.3,20.9,25.93,West,270,12.8,12.8,30,0.00,,---,0.00,VWS V14.01,2013-05-30 17:45:00,
2013-05-30 10:50:00,52.2,20.1,25.93,West,270,10.5,10.5,28,0.00,,---,0.00,VWS V14.01,2013-05-30 17:50:00,
2013-05-30 10:55:00,52.5,21.2,25.93,NW,315,3.6,7.6,29,0.00,,---,0.00,VWS V14.01,2013-05-30 17:55:00,
2013-05-30 11:00:00,52.9,21.5,25.93,West,270,8.7,12.3,29,0.00,,---,0.00,VWS V14.01,2013-05-30 18:00:00,
2013-05-30 11:05:00,52.9,20.7,25.93,West,270,8.7,8.7,28,0.00,,---,0.00,VWS V14.01,2013-05-30 18:05:00,
2013-05-30 11:10:00,53.2,21.8,25.93,NNW,338,5.4,5.4,29,0.00,,---,0.00,VWS V14.01,2013-05-30 18:10:00,
2013-05-30 11:15:00,53.6,22.9,25.93,SW,225,8.3,11.0,30,0.00,,---,0.00,VWS V14.01,2013-05-30 18:15:00,
2013-05-30 11:20:00,53.4,22.0,25.93,NW,315,4.9,8.7,29,0.00,,---,0.00,VWS V14.01,2013-05-30 18:20:00,
2013-05-30 11:25:00,53.1,20.8,25.93,West,270,5.8,5.8,28,0.00,,---,0.00,VWS V14.01,2013-05-30 18:25:00,
2013-05-30 11:30:00,53.8,21.5,25.93,WSW,248,7.6,7.6,28,0.00,,---,0.00,VWS V14.01,2013-05-30 18:30:00,
2013-05-30 11:35:00,53.8,21.5,25.93,WNW,292,7.6,9.6,28,0.00,,---,0.00,VWS V14.01,2013-05-30 18:35:00,
2013-05-30 11:40:00,53.1,20.0,25.93,West,270,5.8,8.1,27,0.00,,---,0.00,VWS V14.01,2013-05-30 18:40:00,
2013-05-30 11:45:00,54.3,22.8,25.93,West,270,8.3,11.0,29,0.00,,---,0.00,VWS V14.01,2013-05-30 18:45:00,
2013-05-30 11:50:00,54.5,22.9,25.93,WSW,248,10.1,10.5,29,0.00,,---,0.00,VWS V14.01,2013-05-30 18:50:00,
2013-05-30 11:55:00,54.1,21.8,25.93,NW,315,2.2,2.2,28,0.00,,---,0.00,VWS V14.01,2013-05-30 18:55:00,
2013-05-30 12:00:00,54.3,21.9,25.93,West,270,10.1,10.1,28,0.00,,---,0.00,VWS V14.01,2013-05-30 19:00:00,
2013-05-30 12:05:00,54.0,19.9,25.93,WSW,248,7.6,7.6,26,0.00,,---,0.00,VWS V14.01,2013-05-30 19:05:00,
2013-05-30 12:10:00,54.5,21.2,25.93,West,270,8.7,11.0,27,0.00,,---,0.00,VWS V14.01,2013-05-30 19:10:00,
2013-05-30 12:15:00,54.5,22.1,25.93,West,270,8.7,10.1,28,0.00,,---,0.00,VWS V14.01,2013-05-30 19:15:00,
2013-05-30 12:20:00,54.5,21.2,25.93,WSW,248,9.6,11.0,27,0.00,,---,0.00,VWS V14.01,2013-05-30 19:20:00,
2013-05-30 12:25:00,54.9,22.4,25.93,West,270,8.3,13.2,28,0.00,,---,0.00,VWS V14.01,2013-05-30 19:25:00,
2013-05-30 12:30:00,54.1,20.9,25.93,SW,225,4.0,10.5,27,0.00,,---,0.00,VWS V14.01,2013-05-30 19:30:00,
2013-05-30 12:35:00,55.0,22.5,25.93,West,270,10.1,10.1,28,0.00,,---,0.00,VWS V14.01,2013-05-30 19:35:00,
2013-05-30 12:40:00,55.0,21.7,25.93,West,270,10.1,10.1,27,0.00,,---,0.00,VWS V14.01,2013-05-30 19:40:00,
2013-05-30 12:45:00,55.0,20.8,25.93,NW,315,9.6,9.6,26,0.00,,---,0.00,VWS V14.01,2013-05-30 19:45:00,
2013-05-30 12:50:00,54.5,20.3,25.93,West,270,12.8,12.8,26,0.00,,---,0.00,VWS V14.01,2013-05-30 19:50:00,
2013-05-30 12:55:00,54.5,20.3,25.93,West,270,10.1,10.1,26,0.00,,---,0.00,VWS V14.01,2013-05-30 19:55:00,
2013-05-30 13:00:00,54.5,20.3,25.93,West,270,10.5,10.5,26,0.00,,---,0.00,VWS V14.01,2013-05-30 20:00:00,
2013-05-30 13:05:00,55.4,21.1,25.93,WSW,248,15.0,15.4,26,0.00,,---,0.00,VWS V14.01,2013-05-30 20:05:00,
2013-05-30 13:10:00,55.0,20.8,25.93,West,270,9.2,13.2,26,0.00,,---,0.00,VWS V14.01,2013-05-30 20:10:00,
2013-05-30 13:15:00,55.4,21.1,25.96,West,270,10.5,10.5,26,0.00,,---,0.00,VWS V14.01,2013-05-30 20:15:00,
2013-05-30 13:20:00,55.2,21.0,25.96,West,270,6.3,13.2,26,0.00,,---,0.00,VWS V14.01,2013-05-30 20:20:00,
2013-05-30 13:25:00,55.0,20.8,25.96,West,270,8.7,11.0,26,0.00,,---,0.00,VWS V14.01,2013-05-30 20:25:00,
2013-05-30 13:30:00,55.8,21.4,25.96,West,270,17.0,17.0,26,0.00,,---,0.00,VWS V14.01,2013-05-30 20:30:00,
2013-05-30 13:35:00,55.6,20.3,25.96,West,270,8.1,8.1,25,0.00,,---,0.00,VWS V14.01,2013-05-30 20:35:00,
2013-05-30 13:40:00,55.4,21.1,25.96,West,270,8.1,9.6,26,0.00,,---,0.00,VWS V14.01,2013-05-30 20:40:00,
2013-05-30 13:45:00,55.8,21.4,25.96,West,270,18.3,18.3,26,0.00,,---,0.00,VWS V14.01,2013-05-30 20:45:00,
2013-05-30 13:50:00,56.1,20.8,25.96,West,270,9.2,9.6,25,0.00,,---,0.00,VWS V14.01,2013-05-30 20:50:00,
2013-05-30 13:55:00,55.6,20.3,25.96,West,270,6.7,8.3,25,0.00,,---,0.00,VWS V14.01,2013-05-30 20:55:00,
2013-05-30 14:00:00,55.6,20.3,25.96,WSW,248,15.9,15.9,25,0.00,,---,0.00,VWS V14.01,2013-05-30 21:00:00,
2013-05-30 14:05:00,56.3,21.0,25.96,WNW,292,8.3,8.7,25,0.00,,---,0.00,VWS V14.01,2013-05-30 21:05:00,
2013-05-30 14:10:00,56.3,21.0,25.96,West,270,8.7,8.7,25,0.00,,---,0.00,VWS V14.01,2013-05-30 21:10:00,
2013-05-30 14:15:00,56.8,22.3,25.96,NW,315,14.5,14.5,26,0.00,,---,0.00,VWS V14.01,2013-05-30 21:15:00,
2013-05-30 14:20:00,57.0,21.6,25.96,WNW,292,9.6,12.3,25,0.00,,---,0.00,VWS V14.01,2013-05-30 21:20:00,
2013-05-30 14:25:00,57.6,22.0,25.96,West,270,8.7,9.6,25,0.00,,---,0.00,VWS V14.01,2013-05-30 21:25:00,
2013-05-30 14:31:00,57.2,21.7,25.96,West,270,12.8,18.3,25,0.00,,---,0.00,VWS V14.01,2013-05-30 21:31:00,
2013-05-30 14:36:00,57.0,21.6,25.96,West,270,8.7,15.9,25,0.00,,---,0.00,VWS V14.01,2013-05-30 21:36:00,
2013-05-30 14:41:00,57.4,21.9,25.96,West,270,11.0,12.3,25,0.00,,---,0.00,VWS V14.01,2013-05-30 21:41:00,
2013-05-30 14:45:00,58.3,22.6,25.96,West,270,15.0,15.0,25,0.00,,---,0.00,VWS V14.01,2013-05-30 21:45:00,
2013-05-30 14:50:00,58.1,21.5,25.96,SW,225,15.9,15.9,24,0.00,,---,0.00,VWS V14.01,2013-05-30 21:50:00,
2013-05-30 14:55:00,58.6,22.9,25.96,West,270,14.5,16.3,25,0.00,,---,0.00,VWS V14.01,2013-05-30 21:55:00,
2013-05-30 15:00:00,57.9,19.3,25.96,West,270,13.2,13.2,22,0.00,,---,0.00,VWS V14.01,2013-05-30 22:00:00,
2013-05-30 15:05:00,57.6,19.0,25.96,West,270,8.3,11.0,22,0.00,,---,0.00,VWS V14.01,2013-05-30 22:05:00,
2013-05-30 15:10:00,58.1,22.5,25.96,West,270,13.2,15.0,25,0.00,,---,0.00,VWS V14.01,2013-05-30 22:10:00,
2013-05-30 15:15:00,57.6,19.0,25.96,SW,225,9.6,10.5,22,0.00,,---,0.00,VWS V14.01,2013-05-30 22:15:00,
2013-05-30 15:20:00,57.9,19.3,25.96,West,270,10.1,10.1,22,0.00,,---,0.00,VWS V14.01,2013-05-30 22:20:00,
2013-05-30 15:25:00,57.0,18.6,25.96,West,270,8.3,12.3,22,0.00,,---,0.00,VWS V14.01,2013-05-30 22:25:00,
2013-05-30 15:30:00,57.2,20.8,25.99,WSW,248,10.5,10.5,24,0.00,,---,0.00,VWS V14.01,2013-05-30 22:30:00,
2013-05-30 15:35:00,57.6,19.0,25.99,WSW,248,10.1,17.0,22,0.00,,---,0.00,VWS V14.01,2013-05-30 22:35:00,
2013-05-30 15:40:00,58.3,21.7,25.99,WNW,292,7.6,11.0,24,0.00,,---,0.00,VWS V14.01,2013-05-30 22:40:00,
2013-05-30 15:45:00,57.6,15.6,25.99,NW,315,10.1,14.5,19,0.00,,---,0.00,VWS V14.01,2013-05-30 22:45:00,
2013-05-30 15:51:00,57.4,15.5,25.99,West,270,8.7,8.7,19,0.00,,---,0.00,VWS V14.01,2013-05-30 22:51:00,
2013-05-30 15:56:00,57.9,15.9,25.99,West,270,8.3,11.9,19,0.00,,---,0.00,VWS V14.01,2013-05-30 22:56:00,
2013-05-30 16:01:00,57.2,15.3,25.99,NW,315,4.0,4.0,19,0.00,,---,0.00,VWS V14.01,2013-05-30 23:01:00,
2013-05-30 16:06:00,58.5,19.8,25.99,West,270,12.3,12.3,22,0.00,,---,0.00,VWS V14.01,2013-05-30 23:06:00,
2013-05-30 16:11:00,58.6,16.5,25.99,North,0,9.6,9.6,19,0.00,,---,0.00,VWS V14.01,2013-05-30 23:11:00,
2013-05-30 16:16:00,58.8,20.1,25.96,NE,45,10.1,10.1,22,0.00,,---,0.00,VWS V14.01,2013-05-30 23:16:00,
2013-05-30 16:21:00,58.5,19.8,25.96,NE,45,10.1,10.1,22,0.00,,---,0.00,VWS V14.01,2013-05-30 23:21:00,
2013-05-30 16:25:00,58.5,16.4,25.96,NW,315,5.4,8.3,19,0.00,,---,0.00,VWS V14.01,2013-05-30 23:25:00,
2013-05-30 16:30:00,62.6,15.8,25.99,NW,315,5.4,5.4,16,0.00,,---,0.00,VWS V14.01,2013-05-30 23:30:00,
2013-05-30 16:35:00,59.9,17.6,25.99,SW,225,6.3,6.3,19,0.00,,---,0.00,VWS V14.01,2013-05-30 23:35:00,
2013-05-30 16:40:00,57.6,15.6,25.99,North,0,5.8,5.8,19,0.00,,---,0.00,VWS V14.01,2013-05-30 23:40:00,
2013-05-30 16:45:00,59.4,17.1,25.99,North,0,5.8,5.8,19,0.00,,---,0.00,VWS V14.01,2013-05-30 23:45:00,
2013-05-30 16:50:00,63.9,16.8,25.99,NNW,338,7.6,7.6,16,0.00,,---,0.00,VWS V14.01,2013-05-30 23:50:00,
2013-05-30 16:55:00,64.9,16.2,25.99,NNW,338,5.4,5.4,15,0.00,,---,0.00,VWS V14.01,2013-05-30 23:55:00,
2013-05-30 17:00:00,65.1,16.4,25.99,West,270,11.4,11.4,15,0.00,,---,0.00,VWS V14.01,2013-05-31 00:00:00,
2013-05-30 17:05:00,65.5,16.6,25.99,WSW,248,15.4,15.4,15,0.00,,---,0.00,VWS V14.01,2013-05-31 00:05:00,
2013-05-30 17:10:00,65.7,16.8,25.99,West,270,11.0,11.0,15,0.00,,---,0.00,VWS V14.01,2013-05-31 00:10:00,
2013-05-30 17:15:00,67.5,18.2,25.99,West,270,11.0,11.0,15,0.00,,---,0.00,VWS V14.01,2013-05-31 00:15:00,
2013-05-30 17:20:00,68.2,18.8,25.99,WSW,248,13.2,13.2,15,0.00,,---,0.00,VWS V14.01,2013-05-31 00:20:00,
2013-05-30 17:25:00,66.6,12.4,25.99,NNW,338,5.8,6.3,12,0.00,,---,0.00,VWS V14.01,2013-05-31 00:25:00,
2013-05-30 17:30:00,67.6,18.4,25.99,WNW,292,5.8,6.3,15,0.00,,---,0.00,VWS V14.01,2013-05-31 00:30:00,
2013-05-30 17:35:00,68.4,19.0,25.99,North,0,8.1,8.1,15,0.00,,---,0.00,VWS V14.01,2013-05-31 00:35:00,
2013-05-30 17:40:00,67.6,18.4,25.99,North,0,8.1,8.1,15,0.00,,---,0.00,VWS V14.01,2013-05-31 00:40:00,
2013-05-30 17:45:00,68.2,13.7,25.99,NW,315,5.4,5.4,12,0.00,,---,0.00,VWS V14.01,2013-05-31 00:45:00,
2013-05-30 17:50:00,68.2,13.7,25.99,NW,315,4.0,4.0,12,0.00,,---,0.00,VWS V14.01,2013-05-31 00:50:00,
2013-05-30 17:55:00,68.2,13.7,25.99,NW,315,6.3,6.3,12,0.00,,---,0.00,VWS V14.01,2013-05-31 00:55:00,
2013-05-30 18:00:00,69.3,14.5,25.99,West,270,10.1,10.1,12,0.00,,---,0.00,VWS V14.01,2013-05-31 01:00:00,
2013-05-30 18:05:00,68.5,13.9,25.99,WNW,292,6.3,6.3,12,0.00,,---,0.00,VWS V14.01,2013-05-31 01:05:00,
2013-05-30 18:10:00,67.6,13.2,25.99,WNW,292,6.3,6.3,12,0.00,,---,0.00,VWS V14.01,2013-05-31 01:10:00,
2013-05-30 18:15:00,69.1,19.5,25.99,NNW,338,5.4,5.4,15,0.00,,---,0.00,VWS V14.01,2013-05-31 01:15:00,
2013-05-30 18:20:00,69.1,14.4,25.99,NNW,338,5.4,5.4,12,0.00,,---,0.00,VWS V14.01,2013-05-31 01:20:00,
2013-05-30 18:25:00,69.3,14.5,25.99,NNW,338,5.4,5.4,12,0.00,,---,0.00,VWS V14.01,2013-05-31 01:25:00,
2013-05-30 18:30:00,69.1,14.4,25.99,West,270,8.7,8.7,12,0.00,,---,0.00,VWS V14.01,2013-05-31 01:30:00,
2013-05-30 18:35:00,67.6,13.2,25.99,SW,225,8.7,8.7,12,0.00,,---,0.00,VWS V14.01,2013-05-31 01:35:00,
2013-05-30 18:40:00,67.8,13.4,25.99,SW,225,8.7,8.7,12,0.00,,---,0.00,VWS V14.01,2013-05-31 01:40:00,
2013-05-30 18:45:00,67.5,13.1,26.01,SW,225,8.7,8.7,12,0.00,,---,0.00,VWS V14.01,2013-05-31 01:45:00,
2013-05-30 18:50:00,61.2,11.6,26.01,SW,225,8.7,8.7,14,0.00,,---,0.00,VWS V14.01,2013-05-31 01:50:00,
2013-05-30 18:55:00,57.2,8.4,26.01,West,270,6.3,6.3,14,0.00,,---,0.00,VWS V14.01,2013-05-31 01:55:00,
2013-05-30 19:00:00,55.2,8.4,26.01,West,270,6.3,6.3,15,0.00,,---,0.00,VWS V14.01,2013-05-31 02:00:00,
2013-05-30 19:05:00,54.0,7.4,26.01,West,270,6.3,6.3,15,0.00,,---,0.00,VWS V14.01,2013-05-31 02:05:00,
2013-05-30 19:10:00,53.2,10.9,26.01,West,270,6.3,6.3,18,0.00,,---,0.00,VWS V14.01,2013-05-31 02:10:00,
2013-05-30 19:15:00,52.7,10.4,26.01,West,270,7.2,7.2,18,0.00,,---,0.00,VWS V14.01,2013-05-31 02:15:00,
2013-05-30 19:20:00,52.0,13.3,26.01,West,270,10.5,10.5,21,0.00,,---,0.00,VWS V14.01,2013-05-31 02:20:00,
2013-05-30 19:25:00,51.1,15.6,26.01,West,270,6.3,8.1,24,0.00,,---,0.00,VWS V14.01,2013-05-31 02:25:00,
2013-05-30 19:30:00,50.5,17.0,26.01,NW,315,5.4,5.4,26,0.00,,---,0.00,VWS V14.01,2013-05-31 02:30:00,
2013-05-30 19:35:00,50.2,17.5,26.01,WNW,292,4.9,8.7,27,0.00,,---,0.00,VWS V14.01,2013-05-31 02:35:00,
2013-05-30 19:40:00,49.8,17.2,26.01,West,270,4.0,4.0,27,0.00,,---,0.00,VWS V14.01,2013-05-31 02:40:00,
2013-05-30 19:45:00,49.3,17.6,26.01,NNW,338,2.7,4.0,28,0.00,,---,0.00,VWS V14.01,2013-05-31 02:45:00,
2013-05-30 19:50:00,48.7,17.1,26.01,NW,315,4.0,4.0,28,0.00,,---,0.00,VWS V14.01,2013-05-31 02:50:00,
2013-05-30 19:55:00,48.4,16.8,26.01,NW,315,4.0,4.0,28,0.00,,---,0.00,VWS V14.01,2013-05-31 02:55:00,
2013-05-30 20:00:00,48.4,16.8,26.01,WNW,292,4.9,4.9,28,0.00,,---,0.00,VWS V14.01,2013-05-31 03:00:00,
2013-05-30 20:05:00,47.7,17.0,26.01,WNW,292,4.0,4.0,29,0.00,,---,0.00,VWS V14.01,2013-05-31 03:05:00,
2013-05-30 20:10:00,46.9,17.9,26.01,NW,315,2.7,4.0,31,0.00,,---,0.00,VWS V14.01,2013-05-31 03:10:00,
2013-05-30 20:15:00,46.4,17.4,26.04,NW,315,4.0,4.0,31,0.00,,---,0.00,VWS V14.01,2013-05-31 03:15:00,
2013-05-30 20:20:00,45.9,17.7,26.04,NW,315,3.6,3.6,32,0.00,,---,0.00,VWS V14.01,2013-05-31 03:20:00,
2013-05-30 20:25:00,45.3,17.9,26.04,NW,315,3.1,3.6,33,0.00,,---,0.00,VWS V14.01,2013-05-31 03:25:00,
2013-05-30 20:30:00,45.0,19.0,26.01,North,0,7.2,7.2,35,0.00,,---,0.00,VWS V14.01,2013-05-31 03:30:00,
2013-05-30 20:35:00,44.8,20.1,26.01,North,0,5.4,6.3,37,0.00,,---,0.00,VWS V14.01,2013-05-31 03:35:00,
2013-05-30 20:40:00,44.1,20.1,26.01,North,0,5.4,6.3,38,0.00,,---,0.00,VWS V14.01,2013-05-31 03:40:00,
2013-05-30 20:45:00,43.9,19.9,26.04,North,0,4.9,5.4,38,0.00,,---,0.00,VWS V14.01,2013-05-31 03:45:00,
2013-05-30 20:50:00,43.2,19.3,26.04,North,0,4.5,4.5,38,0.00,,---,0.00,VWS V14.01,2013-05-31 03:50:00,
2013-05-30 20:55:00,43.0,19.7,26.04,NNW,338,6.3,6.3,39,0.00,,---,0.00,VWS V14.01,2013-05-31 03:55:00,
2013-05-30 21:00:00,42.4,19.8,26.04,NW,315,5.8,5.8,40,0.00,,---,0.00,VWS V14.01,2013-05-31 04:00:00,
2013-05-30 21:01:00,42.4,19.2,26.04,NW,315,5.8,5.8,39,0.00,,---,0.00,VWS V14.01,2013-05-31 04:01:00,
2013-05-30 21:06:00,42.6,20.0,26.04,North,0,6.3,6.3,40,0.00,,---,0.00,VWS V14.01,2013-05-31 04:06:00,
2013-05-30 21:11:00,42.4,19.8,26.04,NNW,338,6.3,6.3,40,0.00,,---,0.00,VWS V14.01,2013-05-31 04:11:00,
2013-05-30 21:16:00,42.4,19.8,26.04,North,0,6.3,6.3,40,0.00,,---,0.00,VWS V14.01,2013-05-31 04:16:00,
2013-05-30 21:21:00,42.3,19.1,26.04,North,0,7.2,7.2,39,0.00,,---,0.00,VWS V14.01,2013-05-31 04:21:00,
2013-05-30 21:26:00,42.3,19.1,26.04,North,0,6.3,6.7,39,0.00,,---,0.00,VWS V14.01,2013-05-31 04:26:00,
2013-05-30 21:31:00,42.3,19.7,26.04,North,0,8.1,8.1,40,0.00,,---,0.00,VWS V14.01,2013-05-31 04:31:00,
2013-05-30 21:36:00,42.3,19.7,26.04,NNW,338,7.2,8.1,40,0.00,,---,0.00,VWS V14.01,2013-05-31 04:36:00,
2013-05-30 21:41:00,41.7,19.2,26.04,NNW,338,6.3,6.3,40,0.00,,---,0.00,VWS V14.01,2013-05-31 04:41:00,
2013-05-30 21:46:00,41.7,19.8,26.04,NNW,338,6.3,6.3,41,0.00,,---,0.00,VWS V14.01,2013-05-31 04:46:00,
2013-05-30 21:51:00,41.5,19.6,26.04,North,0,6.3,6.3,41,0.00,,---,0.00,VWS V14.01,2013-05-31 04:51:00,
2013-05-30 21:56:00,41.4,19.5,26.04,NNW,338,7.2,7.2,41,0.00,,---,0.00,VWS V14.01,2013-05-31 04:56:00,
2013-05-30 22:01:00,41.2,19.3,26.04,NNW,338,4.9,4.9,41,0.00,,---,0.00,VWS V14.01,2013-05-31 05:01:00,
2013-05-30 22:06:00,41.4,20.0,26.04,NW,315,4.9,6.3,42,0.00,,---,0.00,VWS V14.01,2013-05-31 05:06:00,
2013-05-30 22:11:00,41.4,20.0,26.04,NW,315,5.4,5.4,42,0.00,,---,0.00,VWS V14.01,2013-05-31 05:11:00,
2013-05-30 22:16:00,41.5,20.7,26.04,NW,315,8.7,8.7,43,0.00,,---,0.00,VWS V14.01,2013-05-31 05:16:00,
2013-05-30 22:21:00,41.5,20.2,26.04,NW,315,10.1,10.1,42,0.00,,---,0.00,VWS V14.01,2013-05-31 05:21:00,
2013-05-30 22:26:00,41.5,20.2,26.04,NW,315,5.8,5.8,42,0.00,,---,0.00,VWS V14.01,2013-05-31 05:26:00,
2013-05-30 22:31:00,41.4,20.0,26.04,NW,315,3.6,3.6,42,0.00,,---,0.00,VWS V14.01,2013-05-31 05:31:00,
2013-05-30 22:36:00,41.2,19.9,26.04,NNW,338,5.4,5.4,42,0.00,,---,0.00,VWS V14.01,2013-05-31 05:36:00,
2013-05-30 22:41:00,40.8,20.1,26.04,NW,315,5.8,5.8,43,0.00,,---,0.00,VWS V14.01,2013-05-31 05:41:00,
2013-05-30 22:46:00,40.5,19.7,26.04,NNW,338,5.8,5.8,43,0.00,,---,0.00,VWS V14.01,2013-05-31 05:46:00,
2013-05-30 22:51:00,40.5,19.7,26.04,NNW,338,4.9,4.9,43,0.00,,---,0.00,VWS V14.01,2013-05-31 05:51:00,
2013-05-30 22:56:00,40.3,20.1,26.04,North,0,5.4,5.4,44,0.00,,---,0.00,VWS V14.01,2013-05-31 05:56:00,
2013-05-30 23:01:00,39.9,19.8,26.04,NNW,338,4.5,4.5,44,0.00,,---,0.00,VWS V14.01,2013-05-31 06:01:00,
2013-05-30 23:06:00,39.7,20.7,26.04,NNW,338,5.4,5.4,46,0.00,,---,0.00,VWS V14.01,2013-05-31 06:06:00,
2013-05-30 23:11:00,39.2,20.2,26.04,NNW,338,4.9,4.9,46,0.00,,---,0.00,VWS V14.01,2013-05-31 06:11:00,
2013-05-30 23:16:00,38.7,20.2,26.04,NNW,338,4.9,4.9,47,0.00,,---,0.00,VWS V14.01,2013-05-31 06:16:00,
2013-05-30 23:21:00,38.7,20.7,26.04,NNW,338,5.4,5.4,48,0.00,,---,0.00,VWS V14.01,2013-05-31 06:21:00,
2013-05-30 23:26:00,38.8,21.3,26.04,NW,315,5.4,5.4,49,0.00,,---,0.00,VWS V14.01,2013-05-31 06:26:00,
2013-05-30 23:31:00,39.2,21.7,26.04,NW,315,5.4,5.4,49,0.00,,---,0.00,VWS V14.01,2013-05-31 06:31:00,
2013-05-30 23:36:00,38.7,21.2,26.04,NNW,338,4.9,4.9,49,0.00,,---,0.00,VWS V14.01,2013-05-31 06:36:00,
2013-05-30 23:41:00,39.2,20.7,26.04,NW,315,4.9,4.9,47,0.00,,---,0.00,VWS V14.01,2013-05-31 06:41:00,
2013-05-30 23:46:00,38.8,20.8,26.04,NW,315,4.9,4.9,48,0.00,,---,0.00,VWS V14.01,2013-05-31 06:46:00,
2013-05-30 23:51:00,38.3,20.8,26.04,NW,315,4.9,4.9,49,0.00,,---,0.00,VWS V14.01,2013-05-31 06:51:00,
2013-05-30 23:56:00,38.1,20.7,26.04,NNW,338,4.9,4.9,49,0.00,,---,0.00,VWS V14.01,2013-05-31 06:56:00,